Latest Coastal Weather Observations for Frederick Reef

IDQ60701

Issued at 9:52 pm EST Monday 25 July 2016 (issued every 10 minutes, with the page automatically refreshed every 10 minutes)

About coastal observations | Map of coastal stations | Coastal observations for QLD | Marine services | Other Formats
Station Details ID: 200701 Name: FREDERICK REEF Lat: -20.94 Lon: 154.40 Height: 4.9 m
Data from the previous 72 hours. | See also: Recent months for locations in Queensland
Date/Time
EST
Temp
°C
Wind Pressure Rain since
9am
mm
Weather Cloud Vis
km
Sea
Height
m
Swell
Dir  Spd
kts
Gust
kts
hPa Trend Height
m
Period
s
Dir
25/09:30pm 23.9 SE 9 11 1017.0 - - - - - - - - -
25/09:00pm 24.0 SE 9 11 1016.7 - - - - - - - - -
25/08:30pm 24.0 ESE 10 12 1016.6 - - - - - - - - -
25/08:00pm 23.9 ESE 9 11 1016.4 - - - - - - - - -
25/07:30pm 23.9 ESE 10 12 1016.3 - - - - - - - - -
25/07:00pm 23.8 SE 10 13 1016.1 - - - - - - - - -
25/06:30pm 23.9 E 11 13 1015.8 - - - - - - - - -
25/06:00pm 24.0 SE 9 12 1015.4 - - - - - - - - -
25/05:30pm 24.0 SSE 9 11 1015.3 - - - - - - - - -
25/05:00pm 24.0 ESE 9 11 1015.1 - - - - - - - - -
25/04:30pm 24.3 ESE 9 11 1015.0 - - - - - - - - -
25/04:00pm 23.9 SE 8 9 1015.0 - - - - - - - - -
25/03:30pm 24.1 SE 7 9 1014.9 - - - - - - - - -
25/03:00pm 24.1 SSE 8 10 1014.9 - - - - - - - - -
25/02:30pm 24.0 SSE 7 9 1015.0 - - - - - - - - -
25/02:00pm 24.1 SSE 7 8 1015.1 - - - - - - - - -
25/01:30pm 23.9 S 7 9 1015.2 - - - - - - - - -
25/01:00pm 23.9 S 7 9 1015.3 - - - - - - - - -
25/12:30pm 23.9 SSE 6 7 1015.6 - - - - - - - - -
25/12:00pm 23.8 SSE 6 6 1015.9 - - - - - - - - -
25/11:30am 24.0 ESE 5 7 1016.6 - - - - - - - - -
25/11:00am 24.0 E 6 7 1016.9 - - - - - - - - -
25/10:30am 24.1 E 6 8 1017.1 - - - - - - - - -
25/10:00am 24.2 E 7 - 1017.4 - - - - - - - - -
25/09:30am 24.1 ENE 8 10 1017.4 - - - - - - - - -
25/09:00am 24.0 ENE 10 11 1017.4 - - - - - - - - -
25/08:30am 24.4 ENE 8 10 1017.6 - - - - - - - - -
25/08:00am 24.2 ENE 8 10 1017.4 - - - - - - - - -
25/07:30am 24.0 ENE 8 9 1016.8 - - - - - - - - -
25/07:00am 23.9 ENE 9 11 1016.6 - - - - - - - - -
25/06:30am 23.3 E 7 8 1016.4 - - - - - - - - -
25/06:00am 23.4 E 8 9 1016.2 - - - - - - - - -
25/05:30am 23.5 S 7 9 1015.8 - - - - - - - - -
25/05:00am 23.7 S 2 6 1015.7 - - - - - - - - -
25/04:30am 23.5 SSE 3 8 1015.5 - - - - - - - - -
25/04:00am 23.5 SSW 1 3 1015.5 - - - - - - - - -
25/03:30am 23.4 CALM 0 2 1015.6 - - - - - - - - -
25/03:00am 23.7 CALM 0 1 1015.5 - - - - - - - - -
25/02:30am 23.4 CALM 0 1 1015.8 - - - - - - - - -
25/02:00am 23.4 CALM 0 0 1016.2 - - - - - - - - -
25/01:30am 23.4 CALM 0 1 1016.4 - - - - - - - - -
25/01:00am 23.6 CALM 0 1 1016.7 - - - - - - - - -
25/12:30am 23.5 CALM 0 1 1016.8 - - - - - - - - -
25/12:00am 23.7 CALM 0 2 1016.8 - - - - - - - - -
 
Date/Time
EST
Temp
°C
Wind Pressure Rain since
9am
mm
Weather Cloud Vis
km
Sea
Height
m
Swell
Dir  Spd
kts
Gust
kts
hPa Trend Height
m
Period
s
Dir
24/11:30pm 23.6 CALM 0 0 1016.8 - - - - - - - - -
24/11:00pm 23.6 CALM 0 1 1016.6 - - - - - - - - -
24/10:30pm 23.6 CALM 0 1 1016.7 - - - - - - - - -
24/10:00pm 23.8 CALM 0 1 1016.7 - - - - - - - - -
24/09:30pm 23.7 CALM 0 0 1016.5 - - - - - - - - -
24/09:00pm 23.8 CALM 0 1 1016.4 - - - - - - - - -
24/08:30pm 23.8 CALM 0 0 1016.1 - - - - - - - - -
24/08:00pm 23.8 CALM 0 0 1016.1 - - - - - - - - -
24/07:30pm 23.9 CALM 0 0 1015.7 - - - - - - - - -
24/07:00pm 23.8 CALM 0 0 1015.6 - - - - - - - - -
24/06:30pm 24.0 CALM 0 2 1015.0 - - - - - - - - -
24/06:00pm 23.9 W 1 3 1014.8 - - - - - - - - -
24/05:30pm 23.9 CALM 0 1 1014.6 - - - - - - - - -
24/05:00pm 23.9 CALM 0 0 1014.3 - - - - - - - - -
24/04:30pm 24.2 CALM 0 1 1014.1 - - - - - - - - -
24/04:00pm 24.4 CALM 0 0 1014.1 - - - - - - - - -
24/03:30pm 24.4 CALM 0 0 1014.1 - - - - - - - - -
24/03:00pm 24.2 CALM 0 4 1014.0 - - - - - - - - -
24/02:30pm 24.6 CALM 0 0 1013.9 - - - - - - - - -
24/02:00pm 24.7 CALM 0 0 1014.1 - - - - - - - - -
24/01:30pm 24.5 CALM 0 0 1014.4 - - - - - - - - -
24/01:00pm 24.2 CALM 0 0 1014.5 - - - - - - - - -
24/12:30pm 24.0 SE 3 4 1014.8 - - - - - - - - -
24/12:00pm 24.1 ENE 4 6 1015.2 - - - - - - - - -
24/11:30am 24.3 NE 5 7 1015.6 - - - - - - - - -
24/11:00am 24.5 NE 5 6 1015.9 - - - - - - - - -
24/10:30am 24.6 NNE 6 7 1016.0 - - - - - - - - -
24/10:00am 24.9 NNE 5 - 1016.2 - - - - - - - - -
24/09:30am 24.9 NNE 6 7 1016.5 - - - - - - - - -
24/09:00am 24.6 NNE 6 8 1016.5 - - - - - - - - -
24/08:30am 24.6 NNE 5 6 1016.5 - - - - - - - - -
24/08:00am 24.2 NE 5 7 1016.3 - - - - - - - - -
24/07:30am 24.1 NNE 5 7 1016.1 - - - - - - - - -
24/07:00am 24.0 NE 5 8 1015.9 - - - - - - - - -
24/06:30am 23.2 ENE 4 5 1015.8 - - - - - - - - -
24/06:00am 23.1 ENE 5 6 1015.5 - - - - - - - - -
24/05:30am 23.1 WSW 1 3 1015.2 - - - - - - - - -
24/05:00am 23.0 W 5 7 1014.9 - - - - - - - - -
24/04:30am 23.1 W 3 6 1014.4 - - - - - - - - -
24/04:00am 23.0 W 5 7 1014.3 - - - - - - - - -
24/03:30am 23.0 WNW 6 7 1014.2 - - - - - - - - -
24/03:00am 23.0 NNE 6 8 1014.3 - - - - - - - - -
24/02:30am 23.1 WNW 2 6 1014.5 - - - - - - - - -
24/02:00am 23.0 WNW 2 2 1014.6 - - - - - - - - -
24/01:30am 23.1 CALM 0 2 1014.8 - - - - - - - - -
24/01:00am 23.1 CALM 0 6 1014.9 - - - - - - - - -
24/12:30am 23.1 CALM 0 3 1015.2 - - - - - - - - -
24/12:00am 23.2 W 2 6 1015.2 - - - - - - - - -
 
Date/Time
EST
Temp
°C
Wind Pressure Rain since
9am
mm
Weather Cloud Vis
km
Sea
Height
m
Swell
Dir  Spd
kts
Gust
kts
hPa Trend Height
m
Period
s
Dir
23/11:30pm 23.2 W 1 5 1015.1 - - - - - - - - -
23/11:00pm 23.1 W 1 3 1015.1 - - - - - - - - -
23/10:30pm 23.2 CALM 0 2 1015.2 - - - - - - - - -
23/10:00pm 23.3 CALM 0 2 1015.2 - - - - - - - - -
23/09:30pm 23.2 CALM 0 4 1015.1 - - - - - - - - -
23/09:00pm 23.3 CALM 0 0 1015.0 - - - - - - - - -
23/08:30pm 23.4 CALM 0 1 1014.8 - - - - - - - - -
23/08:00pm 23.3 CALM 0 1 1014.6 - - - - - - - - -
23/07:30pm 23.2 CALM 0 0 1014.5 - - - - - - - - -
23/07:00pm 23.4 CALM 0 0 1014.3 - - - - - - - - -
23/06:30pm 23.4 CALM 0 0 1013.9 - - - - - - - - -
23/06:00pm 23.5 W 1 4 1013.8 - - - - - - - - -
23/05:30pm 24.1 W 1 4 1013.4 - - - - - - - - -
23/05:00pm 24.9 CALM 0 3 1013.3 - - - - - - - - -
23/04:30pm 26.0 CALM 0 3 1013.1 - - - - - - - - -
23/04:00pm 25.6 CALM 0 0 1013.0 - - - - - - - - -
23/03:30pm 24.8 CALM 0 0 1012.6 - - - - - - - - -
23/03:00pm 24.2 CALM 0 0 1012.5 - - - - - - - - -
23/02:30pm 24.8 CALM 0 0 1012.7 - - - - - - - - -
23/02:00pm 24.3 CALM 0 0 1013.0 - - - - - - - - -
23/01:30pm 24.5 NNE 5 6 1013.4 - - - - - - - - -
23/01:00pm 24.8 NNE 1 5 1013.6 - - - - - - - - -
23/12:30pm 24.9 N 3 5 1014.1 - - - - - - - - -
23/12:00pm 24.7 CALM 0 0 1014.7 - - - - - - - - -
23/11:30am 24.5 CALM 0 0 1015.0 - - - - - - - - -
23/11:00am 24.6 CALM 0 0 1015.3 - - - - - - - - -
23/10:30am 24.2 ENE 2 4 1015.6 - - - - - - - - -
23/10:00am 24.1 NE 4 5 1015.8 - - - - - - - - -
23/09:30am 24.4 NE 4 5 1016.1 - - - - - - - - -
23/09:00am 24.0 NE 3 6 1016.1 - - - - - - - - -
23/08:30am 23.8 NE 5 7 1016.1 - - - - - - - - -
23/08:00am 23.5 E 6 7 1016.0 - - - - - - - - -
23/07:30am 23.2 ENE 6 7 1015.7 - - - - - - - - -
23/07:00am 23.0 ENE 6 9 1015.5 - - - - - - - - -
23/06:30am 22.8 NNE 6 8 1015.2 - - - - - - - - -
23/06:00am 22.8 NE 6 7 1015.0 - - - - - - - - -
23/05:30am 23.0 W 6 8 1014.6 - - - - - - - - -
23/05:00am 22.8 WSW 4 6 1014.4 - - - - - - - - -
23/04:30am 22.7 WSW 2 4 1014.1 - - - - - - - - -
23/04:00am 22.6 WSW 4 6 1014.1 - - - - - - - - -
23/03:30am 22.7 WSW 4 7 1014.2 - - - - - - - - -
23/03:00am 22.8 WSW 5 6 1014.3 - - - - - - - - -
23/02:30am 22.8 WSW 5 6 1014.4 - - - - - - - - -
23/02:00am 22.8 SW 6 9 1014.6 - - - - - - - - -
23/01:30am 22.8 WSW 6 8 1014.7 - - - - - - - - -
23/01:00am 22.8 SW 7 9 1015.0 - - - - - - - - -
23/12:30am 22.9 SW 6 9 1015.2 - - - - - - - - -
23/12:00am 22.9 SSW 7 10 1015.3 - - - - - - - - -
 
Date/Time
EST
Temp
°C
Wind Pressure Rain since
9am
mm
Weather Cloud Vis
km
Sea
Height
m
Swell
Dir  Spd
kts
Gust
kts
hPa Trend Height
m
Period
s
Dir
22/11:30pm 22.9 SW 6 8 1015.4 - - - - - - - - -
22/11:00pm 23.0 SW 6 8 1015.5 - - - - - - - - -
22/10:30pm 23.0 SW 6 8 1015.6 - - - - - - - - -
22/10:00pm 23.1 WSW 3 6 1015.7 - - - - - - - - -

Other Formats:

Comma delimited format used in spreadsheet applications
http://www.bom.gov.au/fwo/IDQ60701/IDQ60701.94393.axf

JavaScript Object Notation format (JSON) in row-major order
http://www.bom.gov.au/fwo/IDQ60701/IDQ60701.94393.json